createdAt,value
2023-05-09T00:01:20.620Z,99.90
2023-05-09T00:03:47.519Z,99.90
2023-05-09T00:06:15.326Z,99.90
2023-05-09T00:08:41.910Z,99.90
2023-05-09T00:11:08.695Z,99.90
2023-05-09T00:13:35.754Z,99.90
2023-05-09T00:16:03.466Z,99.90
2023-05-09T00:18:31.173Z,99.90
2023-05-09T00:20:57.955Z,99.90
2023-05-09T00:23:24.628Z,99.90
2023-05-09T00:25:51.393Z,99.90
2023-05-09T00:28:18.061Z,99.90
2023-05-09T00:30:44.858Z,99.90
2023-05-09T00:33:11.633Z,99.90
2023-05-09T00:35:38.226Z,99.90
2023-05-09T00:38:04.894Z,99.90
2023-05-09T00:40:31.747Z,99.90
2023-05-09T00:42:59.507Z,99.90
2023-05-09T00:45:26.249Z,99.90
2023-05-09T00:47:53.033Z,99.90
2023-05-09T00:50:19.820Z,99.90
2023-05-09T00:52:46.782Z,99.90
2023-05-09T00:55:13.901Z,99.90
2023-05-09T00:57:40.796Z,99.90
2023-05-09T01:00:12.850Z,99.90
2023-05-09T01:02:44.840Z,99.90
2023-05-09T01:05:12.238Z,99.90
2023-05-09T01:07:52.633Z,99.90
2023-05-09T01:10:46.605Z,99.90
2023-05-09T01:13:32.125Z,99.90
2023-05-09T01:16:10.558Z,99.90
2023-05-09T01:18:51.541Z,99.90
2023-05-09T01:21:25.384Z,99.90
2023-05-09T01:24:26.339Z,99.90
2023-05-09T01:27:19.109Z,99.90
2023-05-09T01:29:55.039Z,99.90
2023-05-09T01:32:25.178Z,99.90
2023-05-09T01:35:04.050Z,99.90
2023-05-09T01:37:38.772Z,99.90
2023-05-09T01:40:13.026Z,99.90
2023-05-09T01:42:54.758Z,99.90
2023-05-09T01:45:23.563Z,99.90
2023-05-09T01:47:50.686Z,99.90
2023-05-09T01:50:18.865Z,99.90
2023-05-09T01:52:49.110Z,99.90
2023-05-09T01:55:17.472Z,99.90
2023-05-09T01:57:45.311Z,99.90
2023-05-09T02:00:14.200Z,99.90
2023-05-09T02:02:41.832Z,99.90
2023-05-09T02:05:12.446Z,99.90
2023-05-09T02:07:41.637Z,99.90
2023-05-09T02:10:09.600Z,99.90
2023-05-09T02:12:36.217Z,99.90
2023-05-09T02:15:03.121Z,99.90
2023-05-09T02:17:30.830Z,99.90
2023-05-09T02:19:57.569Z,99.90
2023-05-09T02:22:24.420Z,99.90
2023-05-09T02:24:51.101Z,99.90
2023-05-09T02:27:18.764Z,99.90
2023-05-09T02:29:51.825Z,99.90
2023-05-09T02:32:25.509Z,99.90
2023-05-09T02:34:54.040Z,99.90
2023-05-09T02:37:27.622Z,99.90
2023-05-09T02:39:55.234Z,99.90
2023-05-09T02:42:25.254Z,99.90
2023-05-09T02:44:53.604Z,99.90
2023-05-09T02:47:20.643Z,99.90
2023-05-09T02:49:47.855Z,99.90
2023-05-09T02:52:14.789Z,99.90
2023-05-09T02:54:41.421Z,99.90
2023-05-09T02:57:08.015Z,99.90
2023-05-09T02:59:34.687Z,99.90
2023-05-09T03:02:01.599Z,99.90
2023-05-09T03:04:28.236Z,99.90
2023-05-09T03:06:55.081Z,99.90
2023-05-09T03:09:21.667Z,99.90
2023-05-09T03:11:48.282Z,99.90
2023-05-09T03:14:15.333Z,99.90
2023-05-09T03:16:41.964Z,99.90
2023-05-09T03:19:08.661Z,99.90
2023-05-09T03:21:35.373Z,99.90
2023-05-09T03:24:02.012Z,99.90
2023-05-09T03:26:28.622Z,99.90
2023-05-09T03:28:55.362Z,99.90
2023-05-09T03:31:22.125Z,99.90
2023-05-09T03:33:48.755Z,99.90
2023-05-09T03:36:15.482Z,99.90
2023-05-09T03:38:42.140Z,99.90
2023-05-09T03:41:22.869Z,99.90
2023-05-09T03:43:49.455Z,99.90
2023-05-09T03:46:16.055Z,99.90
2023-05-09T03:48:42.770Z,99.90
2023-05-09T03:51:09.400Z,99.90
2023-05-09T03:53:36.126Z,99.90
2023-05-09T03:56:02.717Z,99.90
2023-05-09T03:58:29.308Z,99.90
2023-05-09T04:00:56.348Z,99.90
2023-05-09T04:03:23.093Z,99.90
2023-05-09T04:05:49.884Z,99.90
2023-05-09T04:08:16.606Z,99.90
2023-05-09T04:10:43.217Z,99.90
2023-05-09T04:13:09.832Z,99.90
2023-05-09T04:15:36.482Z,99.90
2023-05-09T04:18:03.372Z,99.90
2023-05-09T04:20:31.168Z,99.90
2023-05-09T04:22:58.917Z,99.90
2023-05-09T04:25:26.311Z,99.90
2023-05-09T04:27:53.061Z,99.90
2023-05-09T04:30:20.857Z,99.90
2023-05-09T04:32:48.873Z,99.90
2023-05-09T04:35:16.890Z,99.90
2023-05-09T04:37:45.607Z,99.90
2023-05-09T04:40:13.230Z,99.90
2023-05-09T04:42:40.468Z,99.90
2023-05-09T04:45:07.596Z,99.90
2023-05-09T04:47:34.208Z,99.90
2023-05-09T04:50:00.942Z,99.90
2023-05-09T04:52:27.554Z,99.90
2023-05-09T04:54:54.464Z,99.90
2023-05-09T04:57:21.835Z,99.90
2023-05-09T04:59:48.404Z,99.90
2023-05-09T05:02:14.970Z,99.90
2023-05-09T05:04:41.788Z,99.90
2023-05-09T05:07:08.394Z,99.90
2023-05-09T05:09:35.005Z,99.90
2023-05-09T05:12:03.231Z,99.90
2023-05-09T05:14:31.206Z,99.90
2023-05-09T05:16:57.793Z,99.90
2023-05-09T05:19:24.415Z,99.90
2023-05-09T05:21:51.010Z,99.90
2023-05-09T05:24:17.600Z,99.90
2023-05-09T05:26:44.297Z,99.90
2023-05-09T05:29:11.075Z,99.90
2023-05-09T05:31:37.762Z,99.90
2023-05-09T05:34:04.431Z,99.90
2023-05-09T05:36:32.084Z,99.90
2023-05-09T05:38:58.734Z,99.90
2023-05-09T05:41:26.296Z,99.90
2023-05-09T05:43:54.220Z,99.90
2023-05-09T05:46:21.420Z,99.90
2023-05-09T05:48:48.140Z,99.90
2023-05-09T05:51:14.788Z,99.90
2023-05-09T05:53:41.389Z,99.90
2023-05-09T05:56:08.141Z,99.90
2023-05-09T05:58:34.796Z,99.90
2023-05-09T06:01:02.428Z,99.90
2023-05-09T06:03:29.098Z,99.90
2023-05-09T06:05:56.439Z,99.90
2023-05-09T06:08:23.092Z,99.90
2023-05-09T06:10:49.724Z,99.90
2023-05-09T06:13:16.423Z,99.90
2023-05-09T06:15:43.110Z,99.90
2023-05-09T06:18:09.823Z,99.90
2023-05-09T06:20:36.410Z,99.90
2023-05-09T06:23:03.026Z,99.90
2023-05-09T06:25:29.615Z,99.90
2023-05-09T06:27:56.204Z,99.90
2023-05-09T06:30:26.816Z,99.90
2023-05-09T06:32:54.760Z,99.90
2023-05-09T06:35:21.734Z,99.90
2023-05-09T06:37:49.124Z,99.90
2023-05-09T06:40:16.767Z,99.90
2023-05-09T06:42:43.480Z,99.90
2023-05-09T06:45:10.695Z,99.90
2023-05-09T06:47:37.390Z,99.90
2023-05-09T06:50:04.206Z,99.90
2023-05-09T06:52:30.803Z,99.90
2023-05-09T06:54:57.391Z,99.90
2023-05-09T06:57:24.090Z,99.90
2023-05-09T06:59:50.754Z,99.90
2023-05-09T07:02:17.388Z,99.90
2023-05-09T07:04:44.099Z,99.90
2023-05-09T07:07:10.801Z,99.90
2023-05-09T07:09:37.536Z,99.90
2023-05-09T07:12:04.448Z,99.90
2023-05-09T07:14:31.056Z,99.90
2023-05-09T07:17:05.451Z,99.90
2023-05-09T07:19:41.233Z,99.90
2023-05-09T07:22:08.001Z,99.90
2023-05-09T07:24:34.638Z,99.90
2023-05-09T07:27:03.733Z,99.90
2023-05-09T07:29:30.394Z,99.90
2023-05-09T07:31:57.323Z,99.90
2023-05-09T07:34:25.331Z,99.90
2023-05-09T07:36:52.040Z,99.90
2023-05-09T07:39:18.664Z,99.90
2023-05-09T07:41:46.417Z,99.90
2023-05-09T07:44:14.286Z,99.90
2023-05-09T07:46:42.049Z,99.90
2023-05-09T07:49:08.741Z,99.90
2023-05-09T07:51:35.588Z,99.90
2023-05-09T07:54:02.311Z,99.90
2023-05-09T07:56:29.020Z,99.90
2023-05-09T07:58:55.939Z,99.90
2023-05-09T08:01:22.602Z,99.90
2023-05-09T08:03:49.307Z,99.90
2023-05-09T08:06:16.100Z,99.90
2023-05-09T08:08:42.807Z,99.90
2023-05-09T08:11:09.491Z,99.90
2023-05-09T08:13:36.256Z,99.90
2023-05-09T08:16:04.370Z,99.90
2023-05-09T08:18:31.065Z,99.90
2023-05-09T08:20:59.492Z,99.90
2023-05-09T08:23:26.689Z,99.90
2023-05-09T08:25:54.560Z,99.90
2023-05-09T08:28:24.366Z,99.90
2023-05-09T08:30:52.466Z,99.90
2023-05-09T08:33:19.150Z,99.90
2023-05-09T08:35:51.755Z,99.90
2023-05-09T08:38:18.701Z,99.90
2023-05-09T08:40:45.440Z,99.90
2023-05-09T08:43:12.804Z,99.90
2023-05-09T08:45:51.353Z,99.90
2023-05-09T08:48:18.579Z,99.90
2023-05-09T08:50:45.537Z,99.90
2023-05-09T08:53:13.369Z,99.90
2023-05-09T08:55:40.212Z,99.90
2023-05-09T08:58:08.045Z,99.90
2023-05-09T09:00:36.511Z,99.90
2023-05-09T09:03:04.100Z,99.90
2023-05-09T09:05:41.318Z,99.90
2023-05-09T09:08:10.214Z,99.90
2023-05-09T09:10:47.079Z,99.90
2023-05-09T09:13:15.254Z,99.90
2023-05-09T09:15:45.042Z,99.90
2023-05-09T09:18:39.463Z,99.50
2023-05-09T09:21:09.314Z,98.70
2023-05-09T09:23:38.966Z,98.00
2023-05-09T09:26:05.616Z,98.00
2023-05-09T09:28:32.752Z,96.70
2023-05-09T09:30:59.383Z,96.60
2023-05-09T09:33:28.477Z,96.60
2023-05-09T09:35:56.755Z,95.30
2023-05-09T09:38:24.630Z,94.50
2023-05-09T09:40:58.572Z,94.80
2023-05-09T09:43:31.850Z,94.70
2023-05-09T09:46:05.406Z,94.40
2023-05-09T09:48:34.610Z,92.20
2023-05-09T09:51:09.979Z,92.10
2023-05-09T09:53:43.417Z,93.00
2023-05-09T09:56:10.559Z,93.60
2023-05-09T09:58:37.357Z,95.10
2023-05-09T10:01:14.156Z,95.20
2023-05-09T10:03:43.043Z,95.80
2023-05-09T10:06:11.670Z,95.30
2023-05-09T10:08:38.999Z,95.90
2023-05-09T10:11:05.779Z,95.90
2023-05-09T10:13:36.307Z,96.40
2023-05-09T10:16:04.129Z,96.60
2023-05-09T10:18:31.832Z,95.40
2023-05-09T10:21:03.873Z,95.20
2023-05-09T10:23:32.645Z,94.60
2023-05-09T10:26:11.800Z,93.80
2023-05-09T10:28:41.898Z,92.50
2023-05-09T10:31:27.597Z,92.40
2023-05-09T10:33:58.809Z,90.50
2023-05-09T10:36:25.892Z,91.20
2023-05-09T10:38:54.912Z,89.70
2023-05-09T10:41:22.549Z,86.70
2023-05-09T10:43:49.471Z,84.90
2023-05-09T10:46:17.486Z,83.70
2023-05-09T10:48:44.824Z,82.50
2023-05-09T10:51:12.685Z,81.10
2023-05-09T10:53:47.696Z,81.50
2023-05-09T10:56:30.575Z,78.80
2023-05-09T10:58:57.885Z,78.80
2023-05-09T11:01:45.024Z,76.50
2023-05-09T11:04:14.567Z,75.80
2023-05-09T11:06:48.906Z,80.20
2023-05-09T11:09:37.743Z,81.20
2023-05-09T11:12:08.393Z,82.90
2023-05-09T11:14:44.910Z,83.10
2023-05-09T11:17:13.349Z,83.00
2023-05-09T11:19:45.959Z,75.30
2023-05-09T11:22:17.109Z,73.20
2023-05-09T11:24:48.552Z,74.60
2023-05-09T11:27:26.602Z,73.40
2023-05-09T11:29:58.013Z,75.00
2023-05-09T11:32:31.476Z,74.90
2023-05-09T11:35:10.261Z,77.20
2023-05-09T11:37:47.115Z,76.60
2023-05-09T11:40:15.672Z,81.70
2023-05-09T11:42:44.844Z,81.60
2023-05-09T11:45:13.257Z,84.00
2023-05-09T11:47:41.036Z,86.30
2023-05-09T11:50:13.066Z,90.00
2023-05-09T11:52:41.007Z,90.00
2023-05-09T11:55:11.546Z,90.90
2023-05-09T11:57:46.430Z,92.40
2023-05-09T12:00:15.273Z,94.90
2023-05-09T12:02:45.450Z,96.80
2023-05-09T12:05:15.276Z,98.20
2023-05-09T12:07:42.365Z,99.90
2023-05-09T12:10:14.471Z,99.90
2023-05-09T12:12:49.951Z,99.90
2023-05-09T12:15:17.556Z,99.90
2023-05-09T12:17:46.796Z,99.90
2023-05-09T12:20:14.417Z,99.90
2023-05-09T12:22:43.616Z,99.90
2023-05-09T12:25:11.730Z,99.90
2023-05-09T12:27:40.697Z,99.90
2023-05-09T12:30:10.082Z,99.90
2023-05-09T12:32:39.407Z,99.90
2023-05-09T12:35:08.561Z,99.90
2023-05-09T12:37:35.291Z,99.90
2023-05-09T12:40:08.543Z,99.90
2023-05-09T12:42:36.008Z,99.90
2023-05-09T12:45:04.327Z,99.90
2023-05-09T12:47:32.059Z,99.90
2023-05-09T12:50:03.483Z,99.90
2023-05-09T12:53:01.345Z,99.90
2023-05-09T12:55:29.395Z,99.90
2023-05-09T12:58:01.321Z,99.90
2023-05-09T13:00:28.150Z,99.90
2023-05-09T13:02:55.002Z,99.90
2023-05-09T13:05:22.984Z,99.90
2023-05-09T13:07:52.245Z,99.90
2023-05-09T13:10:30.693Z,99.90
2023-05-09T13:12:57.431Z,99.90
2023-05-09T13:15:26.603Z,99.90
2023-05-09T13:17:54.366Z,98.30
2023-05-09T13:20:21.169Z,99.50
2023-05-09T13:22:47.779Z,97.10
2023-05-09T13:25:15.965Z,96.20
2023-05-09T13:27:42.560Z,94.60
2023-05-09T13:30:09.457Z,94.80
2023-05-09T13:32:38.925Z,94.10
2023-05-09T13:35:07.945Z,94.10
2023-05-09T13:37:35.244Z,94.90
2023-05-09T13:40:02.568Z,95.10
2023-05-09T13:42:29.169Z,95.60
2023-05-09T13:44:55.761Z,96.10
2023-05-09T13:47:22.479Z,96.30
2023-05-09T13:49:49.127Z,96.40
2023-05-09T13:52:16.360Z,95.80
2023-05-09T13:54:43.063Z,95.60
2023-05-09T13:57:09.801Z,95.70
2023-05-09T13:59:36.809Z,95.70
2023-05-09T14:02:03.719Z,96.50
2023-05-09T14:04:31.948Z,96.50
2023-05-09T14:06:59.804Z,96.90
2023-05-09T14:09:28.276Z,97.10
2023-05-09T14:11:55.508Z,97.10
2023-05-09T14:14:23.803Z,97.40
2023-05-09T14:16:51.957Z,96.90
2023-05-09T14:19:18.700Z,97.80
2023-05-09T14:21:48.703Z,97.20
2023-05-09T14:24:16.495Z,97.40
2023-05-09T14:26:43.645Z,96.70
2023-05-09T14:29:10.555Z,97.10
2023-05-09T14:31:37.508Z,97.00
2023-05-09T14:34:05.290Z,97.20
2023-05-09T14:36:32.418Z,97.20
2023-05-09T14:38:58.995Z,97.80
2023-05-09T14:41:25.899Z,97.70
2023-05-09T14:43:52.519Z,98.20
2023-05-09T14:46:19.394Z,97.80
2023-05-09T14:48:45.988Z,97.90
2023-05-09T14:51:12.792Z,97.20
2023-05-09T14:53:41.581Z,97.90
2023-05-09T14:56:09.421Z,97.80
2023-05-09T14:58:36.180Z,97.10
2023-05-09T15:01:04.271Z,97.50
2023-05-09T15:03:31.051Z,97.40
2023-05-09T15:05:58.692Z,96.40
2023-05-09T15:08:25.860Z,96.10
2023-05-09T15:10:52.659Z,96.50
2023-05-09T15:13:19.354Z,96.80
2023-05-09T15:15:46.090Z,96.70
2023-05-09T15:18:15.419Z,97.40
2023-05-09T15:20:42.592Z,97.20
2023-05-09T15:23:09.268Z,97.70
2023-05-09T15:25:35.939Z,97.50
2023-05-09T15:28:02.989Z,98.00
2023-05-09T15:30:29.627Z,97.90
2023-05-09T15:32:56.246Z,98.20
2023-05-09T15:35:22.941Z,98.50
2023-05-09T15:37:49.492Z,99.00
2023-05-09T15:40:16.574Z,98.90
2023-05-09T15:42:43.496Z,99.70
2023-05-09T15:45:10.237Z,99.20
2023-05-09T15:47:36.946Z,99.70
2023-05-09T15:50:03.869Z,99.70
2023-05-09T15:52:30.618Z,99.90
2023-05-09T15:54:57.417Z,99.90
2023-05-09T15:57:24.843Z,99.90
2023-05-09T15:59:54.365Z,99.90
2023-05-09T16:02:22.098Z,99.90
2023-05-09T16:04:48.754Z,99.90
2023-05-09T16:07:15.356Z,99.90
2023-05-09T16:09:43.409Z,99.90
2023-05-09T16:12:10.152Z,99.90
2023-05-09T16:14:36.861Z,99.90
2023-05-09T16:17:03.605Z,99.90
2023-05-09T16:19:30.498Z,99.90
2023-05-09T16:21:57.331Z,99.90
2023-05-09T16:24:23.990Z,99.90
2023-05-09T16:26:50.649Z,99.90
2023-05-09T16:29:17.240Z,99.90
2023-05-09T16:31:44.902Z,99.90
2023-05-09T16:34:11.967Z,99.90
2023-05-09T16:36:39.373Z,99.90
2023-05-09T16:39:05.989Z,99.90
2023-05-09T16:41:32.611Z,99.90
2023-05-09T16:43:59.178Z,99.90
2023-05-09T16:46:25.892Z,99.90
2023-05-09T16:48:52.939Z,99.90
2023-05-09T16:51:19.509Z,99.90
2023-05-09T16:53:46.136Z,99.90
2023-05-09T16:56:12.730Z,99.90
2023-05-09T16:58:39.512Z,99.90
2023-05-09T17:01:06.485Z,99.90
2023-05-09T17:03:33.250Z,99.90
2023-05-09T17:05:59.945Z,99.90
2023-05-09T17:08:26.607Z,99.90
2023-05-09T17:10:53.278Z,99.90
2023-05-09T17:13:20.004Z,99.90
2023-05-09T17:15:46.706Z,99.90
2023-05-09T17:18:15.312Z,99.90
2023-05-09T17:20:46.358Z,99.90
2023-05-09T17:23:13.107Z,99.90
2023-05-09T17:25:39.713Z,99.90
2023-05-09T17:28:07.353Z,99.90
2023-05-09T17:30:34.043Z,99.90
2023-05-09T17:33:01.407Z,99.90
2023-05-09T17:35:28.237Z,99.90
2023-05-09T17:37:54.867Z,99.90
2023-05-09T17:40:21.571Z,99.90
2023-05-09T17:42:48.474Z,99.90
2023-05-09T17:45:15.308Z,99.90
2023-05-09T17:47:42.067Z,99.90
2023-05-09T17:50:10.442Z,99.90
2023-05-09T17:52:37.223Z,99.90
2023-05-09T17:55:04.089Z,99.90
2023-05-09T17:57:30.901Z,99.90
2023-05-09T17:59:58.231Z,99.90
2023-05-09T18:02:25.127Z,99.90
2023-05-09T18:04:52.208Z,99.90
2023-05-09T18:07:18.909Z,99.90
2023-05-09T18:09:47.654Z,99.90
2023-05-09T18:12:14.253Z,99.90
2023-05-09T18:14:41.024Z,99.90
2023-05-09T18:17:08.757Z,99.90
2023-05-09T18:19:36.983Z,99.90
2023-05-09T18:22:03.709Z,99.90
2023-05-09T18:24:30.367Z,99.90
2023-05-09T18:26:57.176Z,99.90
2023-05-09T18:29:24.242Z,99.90
2023-05-09T18:31:52.090Z,99.90
2023-05-09T18:34:18.904Z,99.90
2023-05-09T18:36:46.948Z,99.90
2023-05-09T18:39:14.137Z,99.90
2023-05-09T18:41:41.088Z,99.90
2023-05-09T18:44:08.591Z,99.90
2023-05-09T18:46:35.354Z,99.90
2023-05-09T18:49:05.163Z,99.90
2023-05-09T18:51:32.150Z,99.90
2023-05-09T18:53:58.739Z,99.90
2023-05-09T18:56:25.517Z,99.90
2023-05-09T18:58:52.319Z,99.90
2023-05-09T19:01:24.490Z,99.90
2023-05-09T19:03:54.110Z,99.90
2023-05-09T19:06:21.572Z,99.90
2023-05-09T19:08:48.640Z,99.90
2023-05-09T19:11:16.032Z,99.90
2023-05-09T19:13:48.417Z,99.90
2023-05-09T19:16:19.616Z,99.90
2023-05-09T19:18:46.483Z,99.90
2023-05-09T19:21:15.101Z,99.90
2023-05-09T19:23:42.556Z,99.90
2023-05-09T19:26:10.375Z,99.90
2023-05-09T19:28:36.999Z,99.90
2023-05-09T19:31:03.711Z,99.90
2023-05-09T19:33:30.494Z,99.90
2023-05-09T19:35:57.311Z,99.90
2023-05-09T19:38:24.590Z,99.90
2023-05-09T19:40:51.491Z,99.90
2023-05-09T19:43:18.474Z,99.90
2023-05-09T19:45:45.386Z,99.90
2023-05-09T19:48:15.581Z,99.90
2023-05-09T19:50:43.062Z,99.90
2023-05-09T19:53:10.426Z,99.90
2023-05-09T19:55:37.447Z,99.90
2023-05-09T19:58:04.684Z,99.90
2023-05-09T20:00:32.333Z,99.90
2023-05-09T20:02:59.182Z,99.90
2023-05-09T20:05:26.035Z,99.90
2023-05-09T20:07:53.064Z,99.90
2023-05-09T20:10:19.783Z,99.90
2023-05-09T20:12:46.569Z,99.90
2023-05-09T20:15:13.554Z,99.90
2023-05-09T20:17:40.386Z,99.90
2023-05-09T20:20:07.759Z,99.90
2023-05-09T20:22:34.577Z,99.90
2023-05-09T20:25:01.375Z,99.90
2023-05-09T20:27:28.088Z,99.90
2023-05-09T20:29:54.933Z,99.90
2023-05-09T20:32:22.474Z,99.90
2023-05-09T20:34:49.454Z,99.90
2023-05-09T20:37:16.047Z,99.90
2023-05-09T20:39:42.870Z,99.90
2023-05-09T20:42:09.551Z,99.90
2023-05-09T20:44:39.125Z,99.90
2023-05-09T20:47:05.926Z,99.90
2023-05-09T20:49:32.553Z,99.90
2023-05-09T20:51:59.492Z,99.90
2023-05-09T20:54:26.196Z,99.90
2023-05-09T20:56:52.844Z,99.90
2023-05-09T20:59:19.474Z,99.90
2023-05-09T21:01:46.089Z,99.90
2023-05-09T21:04:12.719Z,99.90
2023-05-09T21:06:39.424Z,99.90
2023-05-09T21:09:06.243Z,99.90
2023-05-09T21:11:33.022Z,99.90
2023-05-09T21:13:59.706Z,99.90
2023-05-09T21:16:26.471Z,99.90
2023-05-09T21:18:53.238Z,99.90
2023-05-09T21:21:19.900Z,99.90
2023-05-09T21:23:46.784Z,99.90
2023-05-09T21:26:13.359Z,99.90
2023-05-09T21:28:40.211Z,99.90
2023-05-09T21:33:33.408Z,99.90
2023-05-09T21:36:00.067Z,99.90
2023-05-09T21:38:26.711Z,99.90
2023-05-09T21:40:53.499Z,99.90
2023-05-09T21:43:20.206Z,99.90
2023-05-09T21:45:46.808Z,99.90
2023-05-09T21:48:13.514Z,99.90
2023-05-09T21:50:40.359Z,99.90
2023-05-09T21:53:07.020Z,99.90
2023-05-09T21:55:33.742Z,99.90
2023-05-09T21:58:00.822Z,99.90
2023-05-09T22:00:27.435Z,99.90
2023-05-09T22:02:54.162Z,99.90
2023-05-09T22:05:20.807Z,99.90
2023-05-09T22:07:47.415Z,99.90
2023-05-09T22:10:14.158Z,99.90
2023-05-09T22:12:40.856Z,99.90
2023-05-09T22:15:08.636Z,99.90
2023-05-09T22:17:35.511Z,99.90
2023-05-09T22:20:02.205Z,99.90
2023-05-09T22:22:29.665Z,99.90
2023-05-09T22:24:56.260Z,99.90
2023-05-09T22:27:22.911Z,99.90
2023-05-09T22:29:49.600Z,99.90
2023-05-09T22:32:16.478Z,99.90
2023-05-09T22:34:45.973Z,99.90
2023-05-09T22:37:12.563Z,99.90
2023-05-09T22:39:39.277Z,99.90
2023-05-09T22:42:06.669Z,99.90
2023-05-09T22:44:33.272Z,99.90
2023-05-09T22:46:59.991Z,99.90
2023-05-09T22:49:26.627Z,99.90
2023-05-09T22:51:53.201Z,99.90
2023-05-09T22:54:22.192Z,99.90
2023-05-09T22:56:48.925Z,99.90
2023-05-09T22:59:15.749Z,99.90
2023-05-09T23:01:42.394Z,99.90
2023-05-09T23:04:09.048Z,99.90
2023-05-09T23:06:35.652Z,99.90
2023-05-09T23:09:02.207Z,99.90
2023-05-09T23:11:28.922Z,99.90
2023-05-09T23:13:55.526Z,99.90
2023-05-09T23:16:22.141Z,99.90
2023-05-09T23:18:49.853Z,99.90
2023-05-09T23:21:16.606Z,99.90
2023-05-09T23:23:43.255Z,99.90
2023-05-09T23:26:10.348Z,99.90
2023-05-09T23:28:36.923Z,99.90
2023-05-09T23:31:03.548Z,99.90
2023-05-09T23:33:30.188Z,99.90
2023-05-09T23:35:57.046Z,99.90
2023-05-09T23:38:23.686Z,99.90
2023-05-09T23:40:50.452Z,99.90
2023-05-09T23:43:18.052Z,99.90
2023-05-09T23:45:44.686Z,99.90
2023-05-09T23:48:11.375Z,99.90
2023-05-09T23:50:37.946Z,99.90
2023-05-09T23:53:04.917Z,99.90
2023-05-09T23:55:32.056Z,99.90
2023-05-09T23:57:59.458Z,99.90
